Time;durP1;ratioP1;P1;durP2;ratioP2;P2;SDS_P1;SDS_P2;PMS_P1;PMS_P2;Temp;Humidity;BMP_temperature;BMP_pressure;BME280_temperature;BME280_humidity;BME280_pressure;Samples;Min_cycle;Max_cycle;Signal;HPM_P1;HPM_P2
2023/04/30 00:01:43;;;;;;;10.52;4.00;;;6.70;99.90;;;;;;5019729;28;20073;-57
2023/04/30 00:04:09;;;;;;;11.52;5.55;;;6.60;99.90;;;;;;5019810;28;20060;-57
2023/04/30 00:06:34;;;;;;;8.63;3.80;;;6.50;99.90;;;;;;5019461;28;20041;-57
2023/04/30 00:09:00;;;;;;;10.57;3.83;;;6.60;99.90;;;;;;5019735;28;20045;-57
2023/04/30 00:11:26;;;;;;;9.18;4.07;;;6.50;99.90;;;;;;5018747;28;20042;-56
2023/04/30 00:13:52;;;;;;;11.02;4.00;;;6.40;99.90;;;;;;5018853;28;20053;-56
2023/04/30 00:16:18;;;;;;;9.15;4.22;;;6.40;99.90;;;;;;5018760;28;20137;-57
2023/04/30 00:18:44;;;;;;;10.95;5.07;;;6.50;99.90;;;;;;5019607;28;20042;-58
2023/04/30 00:21:10;;;;;;;7.78;3.90;;;6.50;99.90;;;;;;5019519;28;20133;-57
2023/04/30 00:23:35;;;;;;;9.35;3.63;;;6.50;99.90;;;;;;5019261;28;20064;-56
2023/04/30 00:26:01;;;;;;;8.38;3.70;;;6.60;99.90;;;;;;5019935;28;20050;-57
2023/04/30 00:28:27;;;;;;;11.45;3.70;;;6.40;99.90;;;;;;5018884;28;20096;-57
2023/04/30 00:30:53;;;;;;;9.48;3.53;;;6.50;99.90;;;;;;5019386;28;20046;-57
2023/04/30 00:33:18;;;;;;;8.38;3.33;;;6.40;99.90;;;;;;5018793;28;20034;-56
2023/04/30 00:35:44;;;;;;;11.23;3.50;;;6.40;99.90;;;;;;5019214;28;20048;-57
2023/04/30 00:38:10;;;;;;;11.30;3.67;;;6.40;99.90;;;;;;5019527;28;20509;-57
2023/04/30 00:40:37;;;;;;;7.45;3.35;;;6.30;99.90;;;;;;5018821;28;20054;-58
2023/04/30 00:43:02;;;;;;;6.40;3.50;;;6.30;99.90;;;;;;5019669;28;20077;-57
2023/04/30 00:45:28;;;;;;;14.77;4.80;;;6.30;99.90;;;;;;5018350;28;20038;-57
2023/04/30 00:47:54;;;;;;;9.75;3.95;;;6.30;99.90;;;;;;5019332;28;20068;-57
2023/04/30 00:50:19;;;;;;;9.60;3.95;;;6.30;99.90;;;;;;5018265;28;20049;-57
2023/04/30 00:52:45;;;;;;;8.98;4.50;;;6.20;99.90;;;;;;5019111;28;20046;-58
2023/04/30 00:55:11;;;;;;;8.15;3.60;;;6.30;99.90;;;;;;5018993;28;20061;-58
2023/04/30 00:57:39;;;;;;;10.43;4.45;;;6.30;99.90;;;;;;5001104;28;20046;-57
2023/04/30 01:00:08;;;;;;;7.70;4.22;;;6.30;99.90;;;;;;5019141;28;20049;-57
2023/04/30 01:02:35;;;;;;;7.93;4.03;;;6.20;99.90;;;;;;5018365;28;20046;-57
2023/04/30 01:05:02;;;;;;;7.88;3.97;;;6.10;99.90;;;;;;5018782;28;20057;-57
2023/04/30 01:07:29;;;;;;;10.15;3.90;;;6.20;99.90;;;;;;5018511;28;20046;-57
2023/04/30 01:09:55;;;;;;;8.88;4.10;;;6.20;99.90;;;;;;5018297;28;20050;-57
2023/04/30 01:12:32;;;;;;;7.20;3.80;;;6.20;99.90;;;;;;5018816;28;20056;-58
2023/04/30 01:15:26;;;;;;;8.63;3.92;;;6.10;99.90;;;;;;5017943;28;20071;-57
2023/04/30 01:18:11;;;;;;;9.02;3.80;;;6.10;99.90;;;;;;5018803;28;20069;-58
2023/04/30 01:20:43;;;;;;;8.60;3.83;;;6.10;99.90;;;;;;5018206;28;20103;-57
2023/04/30 01:23:27;;;;;;;9.32;4.45;;;6.00;99.90;;;;;;5017946;28;20555;-57
2023/04/30 01:25:55;;;;;;;11.05;4.30;;;6.10;99.90;;;;;;5018850;28;20081;-54
2023/04/30 01:28:23;;;;;;;11.98;4.00;;;6.00;99.90;;;;;;5017779;28;20041;-58
2023/04/30 01:30:49;;;;;;;9.05;4.22;;;6.10;99.90;;;;;;5018667;28;20056;-56
2023/04/30 01:33:15;;;;;;;7.70;4.53;;;6.20;99.90;;;;;;5017732;28;20037;-58
2023/04/30 01:36:11;;;;;;;9.98;3.90;;;6.30;99.90;;;;;;5018139;28;20124;-57
2023/04/30 01:38:51;;;;;;;11.57;4.18;;;6.10;99.90;;;;;;5018356;28;20041;-57
2023/04/30 01:41:32;;;;;;;10.55;4.07;;;6.30;99.90;;;;;;5017703;28;20046;-57
2023/04/30 01:44:28;;;;;;;9.75;3.60;;;6.30;99.90;;;;;;5018161;28;20071;-57
2023/04/30 01:47:37;;;;;;;9.55;4.30;;;6.40;99.90;;;;;;5018093;28;20068;-58
2023/04/30 01:50:23;;;;;;;9.88;4.65;;;6.40;99.90;;;;;;5017447;28;20425;-58
2023/04/30 01:52:56;;;;;;;11.50;3.88;;;6.50;99.90;;;;;;5018047;28;20104;-58
2023/04/30 01:55:35;;;;;;;10.38;4.32;;;6.40;99.90;;;;;;5018064;28;20102;-57
2023/04/30 01:58:09;;;;;;;9.05;3.78;;;6.60;99.90;;;;;;5017722;28;20049;-57
2023/04/30 02:00:35;;;;;;;7.70;3.83;;;6.60;99.90;;;;;;5017936;28;20037;-57
2023/04/30 02:03:01;;;;;;;10.65;3.55;;;6.50;99.90;;;;;;5017597;28;20061;-57
2023/04/30 02:05:26;;;;;;;8.15;3.53;;;6.50;99.90;;;;;;5018180;28;20056;-57
2023/04/30 02:07:52;;;;;;;7.90;3.42;;;6.50;99.90;;;;;;5017807;28;20050;-58
2023/04/30 02:10:21;;;;;;;8.80;3.60;;;6.70;99.90;;;;;;5017564;28;20045;-56
2023/04/30 02:12:47;;;;;;;7.55;3.30;;;6.70;99.90;;;;;;5018035;28;20092;-57
2023/04/30 02:15:14;;;;;;;7.03;3.50;;;6.60;99.90;;;;;;4999442;28;20050;-58
2023/04/30 02:17:40;;;;;;;7.00;3.40;;;6.70;99.90;;;;;;5000299;28;20049;-57
2023/04/30 02:20:06;;;;;;;10.25;4.00;;;6.70;99.90;;;;;;5017358;28;20125;-57
2023/04/30 02:22:32;;;;;;;9.23;3.47;;;6.70;99.90;;;;;;5017721;28;20069;-57
2023/04/30 02:24:58;;;;;;;9.77;3.35;;;6.80;99.90;;;;;;5017254;28;20034;-57
2023/04/30 02:27:25;;;;;;;10.40;3.72;;;6.90;99.90;;;;;;5017401;28;20042;-56
2023/04/30 02:29:51;;;;;;;8.23;3.40;;;6.90;99.90;;;;;;5017823;28;20077;-57
2023/04/30 02:32:17;;;;;;;8.23;3.72;;;6.70;99.90;;;;;;5017437;28;20050;-57
2023/04/30 02:34:43;;;;;;;11.00;3.92;;;6.70;99.90;;;;;;5017949;28;20045;-57
2023/04/30 02:37:09;;;;;;;9.90;3.38;;;6.80;99.90;;;;;;5020043;28;20212;-57
2023/04/30 02:39:35;;;;;;;9.63;3.25;;;6.90;99.90;;;;;;5021309;28;20053;-58
2023/04/30 02:42:00;;;;;;;8.43;3.30;;;6.90;99.90;;;;;;5020935;28;20045;-57
2023/04/30 02:44:28;;;;;;;12.65;3.53;;;6.90;99.90;;;;;;5021089;28;20460;-58
2023/04/30 02:46:53;;;;;;;8.43;3.35;;;6.80;99.90;;;;;;5003944;28;20049;-57
2023/04/30 02:49:19;;;;;;;7.55;2.90;;;6.90;99.90;;;;;;5020954;28;20037;-56
2023/04/30 02:51:45;;;;;;;6.75;3.00;;;6.90;99.90;;;;;;5021710;28;20041;-57
2023/04/30 02:54:10;;;;;;;9.65;3.03;;;6.90;99.90;;;;;;5020405;28;20069;-57
2023/04/30 02:56:38;;;;;;;6.60;2.72;;;6.90;99.90;;;;;;5021164;28;20109;-57
2023/04/30 02:59:04;;;;;;;11.43;3.30;;;7.10;99.90;;;;;;5020086;28;20053;-56
2023/04/30 03:01:29;;;;;;;7.82;2.60;;;7.00;99.90;;;;;;5021283;28;20038;-56
2023/04/30 03:03:55;;;;;;;7.18;2.78;;;6.90;99.90;;;;;;5021232;28;20105;-57
2023/04/30 03:06:21;;;;;;;10.25;3.25;;;7.00;99.90;;;;;;5020551;28;20041;-57
2023/04/30 03:08:47;;;;;;;12.35;3.85;;;6.90;99.90;;;;;;5003487;28;20058;-57
2023/04/30 03:11:13;;;;;;;9.77;3.13;;;6.90;99.90;;;;;;5020477;28;20048;-57
2023/04/30 03:13:39;;;;;;;10.60;3.63;;;6.90;99.90;;;;;;5020805;28;20144;-57
2023/04/30 03:16:05;;;;;;;8.63;3.10;;;7.00;99.90;;;;;;5002816;28;20488;-57
2023/04/30 03:18:31;;;;;;;7.78;3.72;;;7.00;99.90;;;;;;5020587;28;20049;-57
2023/04/30 03:20:57;;;;;;;9.25;3.60;;;7.10;99.90;;;;;;5020657;28;20050;-57
2023/04/30 03:23:25;;;;;;;11.50;4.30;;;7.10;99.90;;;;;;5020282;28;20052;-57
2023/04/30 03:25:51;;;;;;;8.95;3.53;;;6.90;99.90;;;;;;5021045;28;20041;-57
2023/04/30 03:28:17;;;;;;;8.80;3.65;;;7.00;99.90;;;;;;5019838;28;20096;-57
2023/04/30 03:30:42;;;;;;;12.13;3.83;;;7.00;99.90;;;;;;5020785;28;20093;-58
2023/04/30 03:33:08;;;;;;;13.07;3.65;;;6.90;99.90;;;;;;5019885;28;20042;-58
2023/04/30 03:35:34;;;;;;;18.02;4.50;;;6.90;99.90;;;;;;4986381;28;20069;-58
2023/04/30 03:38:00;;;;;;;10.50;3.58;;;6.90;99.90;;;;;;5020027;28;20046;-57
2023/04/30 03:40:26;;;;;;;10.88;3.58;;;6.70;99.90;;;;;;5019694;28;20056;-58
2023/04/30 03:42:52;;;;;;;12.73;4.53;;;6.70;99.90;;;;;;5020539;28;20050;-57
2023/04/30 03:45:18;;;;;;;11.15;4.32;;;6.70;99.90;;;;;;5019681;28;20041;-58
2023/04/30 03:47:44;;;;;;;10.00;3.95;;;6.70;99.90;;;;;;5019867;28;20526;-57
2023/04/30 03:50:10;;;;;;;10.50;3.90;;;6.70;99.90;;;;;;5019759;28;20038;-57
2023/04/30 03:52:36;;;;;;;10.85;3.97;;;6.50;99.90;;;;;;5020114;28;20046;-58
2023/04/30 03:55:05;;;;;;;11.38;4.00;;;6.60;99.90;;;;;;5019758;28;20101;-57
2023/04/30 03:57:31;;;;;;;10.23;4.20;;;6.40;99.90;;;;;;5019571;28;20053;-58
2023/04/30 03:59:58;;;;;;;8.43;3.92;;;6.50;99.90;;;;;;5020210;28;20121;-57
2023/04/30 04:02:24;;;;;;;10.75;4.35;;;6.40;99.90;;;;;;5001724;28;20298;-57
2023/04/30 04:04:50;;;;;;;10.50;4.63;;;6.20;99.90;;;;;;5020125;28;20042;-57
2023/04/30 04:07:16;;;;;;;9.07;4.00;;;6.40;99.90;;;;;;5019268;28;20056;-57
2023/04/30 04:09:42;;;;;;;8.57;3.97;;;6.20;99.90;;;;;;5019277;28;20038;-58
2023/04/30 04:12:08;;;;;;;8.60;3.55;;;6.20;99.90;;;;;;5019398;28;20072;-57
2023/04/30 04:14:34;;;;;;;12.65;5.72;;;6.50;99.90;;;;;;5019412;28;20080;-58
2023/04/30 04:17:00;;;;;;;8.82;3.65;;;6.30;99.90;;;;;;5019827;28;20053;-58
2023/04/30 04:19:26;;;;;;;8.80;3.88;;;6.30;99.90;;;;;;4985213;28;20054;-57
2023/04/30 04:21:52;;;;;;;10.35;4.28;;;6.30;99.90;;;;;;5019660;28;20055;-58
2023/04/30 04:24:18;;;;;;;10.23;3.97;;;6.20;99.90;;;;;;5001180;28;20050;-57
2023/04/30 04:26:44;;;;;;;10.05;3.90;;;6.10;99.90;;;;;;5019611;28;20717;-57
2023/04/30 04:29:11;;;;;;;10.65;4.57;;;6.10;99.90;;;;;;5019162;28;20049;-57
2023/04/30 04:31:37;;;;;;;8.90;3.63;;;6.10;99.90;;;;;;5019082;28;20081;-58
2023/04/30 04:34:03;;;;;;;9.63;3.85;;;6.10;99.90;;;;;;5019339;28;20042;-57
2023/04/30 04:36:30;;;;;;;9.80;3.53;;;6.20;99.90;;;;;;5018519;28;20057;-57
2023/04/30 04:39:00;;;;;;;9.85;4.00;;;6.10;99.90;;;;;;5018852;28;20102;-58
2023/04/30 04:41:35;;;;;;;10.68;4.30;;;6.10;99.90;;;;;;5018664;28;20129;-57
2023/04/30 04:44:02;;;;;;;8.13;3.67;;;6.30;99.90;;;;;;5019222;28;20037;-58
2023/04/30 04:46:29;;;;;;;11.70;3.58;;;6.30;99.90;;;;;;5018975;28;20049;-58
2023/04/30 04:48:55;;;;;;;11.77;3.90;;;6.30;99.90;;;;;;5001105;28;20052;-57
2023/04/30 04:51:20;;;;;;;10.88;3.80;;;6.30;99.90;;;;;;5019252;28;20129;-58
2023/04/30 04:53:46;;;;;;;13.88;4.20;;;6.40;99.90;;;;;;5018190;28;20124;-57
2023/04/30 04:56:12;;;;;;;13.55;3.63;;;6.40;99.90;;;;;;5019129;28;20042;-57
2023/04/30 04:58:38;;;;;;;10.60;4.10;;;6.50;99.90;;;;;;5017715;28;20054;-57
2023/04/30 05:01:04;;;;;;;13.05;3.78;;;6.60;99.90;;;;;;5018833;28;20046;-58
2023/04/30 05:03:31;;;;;;;11.68;3.65;;;6.60;99.90;;;;;;5018377;28;20449;-57
2023/04/30 05:05:57;;;;;;;12.18;3.97;;;6.80;99.90;;;;;;5018441;28;20053;-58
2023/04/30 05:08:23;;;;;;;10.13;3.47;;;6.90;99.90;;;;;;5018863;28;20050;-58
2023/04/30 05:10:49;;;;;;;13.82;4.05;;;6.90;99.90;;;;;;5018090;28;20068;-57
2023/04/30 05:13:14;;;;;;;12.05;4.63;;;6.90;99.90;;;;;;5019010;28;20048;-58
2023/04/30 05:15:40;;;;;;;12.02;3.40;;;7.10;99.90;;;;;;5017993;28;20084;-57
2023/04/30 05:18:06;;;;;;;8.48;3.28;;;7.00;99.90;;;;;;5018513;28;20054;-57
2023/04/30 05:20:31;;;;;;;9.95;3.67;;;7.00;99.90;;;;;;5017846;28;20038;-57
2023/04/30 05:22:57;;;;;;;12.80;3.83;;;7.20;99.90;;;;;;5018667;28;20042;-58
2023/04/30 05:25:23;;;;;;;13.05;3.85;;;7.20;99.90;;;;;;5018603;28;20045;-58
2023/04/30 05:27:48;;;;;;;10.52;3.50;;;7.30;99.90;;;;;;5018207;28;20084;-58
2023/04/30 05:30:14;;;;;;;14.02;3.80;;;7.30;99.90;;;;;;5018699;28;20042;-56
2023/04/30 05:32:40;;;;;;;8.20;3.72;;;7.60;99.90;;;;;;5017911;28;20103;-57
2023/04/30 05:35:07;;;;;;;14.90;4.82;;;7.50;99.90;;;;;;5015963;28;20098;-57
2023/04/30 05:37:32;;;;;;;13.63;5.05;;;7.50;99.90;;;;;;5014149;28;20045;-58
2023/04/30 05:39:58;;;;;;;9.32;3.75;;;7.60;99.90;;;;;;5014264;28;20046;-57
2023/04/30 05:42:24;;;;;;;18.00;5.20;;;7.70;99.90;;;;;;5013873;28;20048;-58
2023/04/30 05:44:50;;;;;;;8.90;3.88;;;7.70;99.90;;;;;;4995569;28;20042;-57
2023/04/30 05:47:15;;;;;;;12.68;4.13;;;7.70;99.90;;;;;;5013876;28;20046;-57
2023/04/30 05:49:41;;;;;;;12.02;3.63;;;7.70;99.90;;;;;;4995213;28;20549;-58
2023/04/30 05:52:07;;;;;;;9.48;3.30;;;7.90;99.90;;;;;;4996087;28;20042;-58
2023/04/30 05:54:33;;;;;;;8.27;3.13;;;7.80;99.90;;;;;;4995158;28;20050;-57
2023/04/30 05:56:59;;;;;;;10.50;3.20;;;7.90;99.90;;;;;;5013338;28;20057;-58
2023/04/30 05:59:24;;;;;;;13.07;3.30;;;7.90;99.90;;;;;;5013516;28;20053;-57
2023/04/30 06:01:51;;;;;;;12.93;3.92;;;8.00;99.90;;;;;;4996244;28;20042;-57
2023/04/30 06:04:19;;;;;;;13.20;3.47;;;8.10;99.90;;;;;;5014509;28;20049;-58
2023/04/30 06:06:44;;;;;;;14.35;3.53;;;8.00;99.90;;;;;;5013750;28;20049;-57
2023/04/30 06:09:10;;;;;;;10.15;3.50;;;8.00;99.90;;;;;;5014273;28;20069;-58
2023/04/30 06:11:36;;;;;;;11.80;3.53;;;8.10;99.90;;;;;;5017213;28;20073;-58
2023/04/30 06:14:02;;;;;;;10.30;3.63;;;8.10;99.90;;;;;;5017890;28;20525;-56
2023/04/30 06:16:28;;;;;;;9.80;3.33;;;8.20;99.90;;;;;;5017878;28;20050;-57
2023/04/30 06:18:54;;;;;;;9.88;3.58;;;8.20;99.90;;;;;;5017634;28;20229;-57
2023/04/30 06:21:20;;;;;;;13.30;4.07;;;8.10;99.90;;;;;;5017491;28;20093;-58
2023/04/30 06:23:45;;;;;;;12.88;3.60;;;8.20;99.90;;;;;;5017173;28;20038;-57
2023/04/30 06:26:13;;;;;;;10.55;3.67;;;8.20;99.90;;;;;;4984234;28;20041;-58
2023/04/30 06:28:39;;;;;;;15.95;4.13;;;8.30;99.90;;;;;;5009579;28;20050;-58
2023/04/30 06:31:05;;;;;;;15.40;4.22;;;8.30;99.90;;;;;;5017881;28;20588;-57
2023/04/30 06:33:31;;;;;;;18.13;4.15;;;8.30;99.90;;;;;;5017056;28;20488;-58
2023/04/30 06:35:57;;;;;;;13.18;4.15;;;8.30;99.90;;;;;;5017107;28;20037;-58
2023/04/30 06:38:22;;;;;;;13.00;4.15;;;8.50;99.90;;;;;;5017947;28;20524;-58
2023/04/30 06:40:48;;;;;;;13.07;4.00;;;8.60;99.90;;;;;;5017253;28;20050;-57
2023/04/30 06:43:15;;;;;;;14.68;4.55;;;8.70;99.90;;;;;;5017998;28;20042;-58
2023/04/30 06:45:40;;;;;;;11.73;4.35;;;8.70;99.90;;;;;;5017082;28;20046;-58
2023/04/30 06:48:06;;;;;;;14.02;5.38;;;8.80;99.90;;;;;;5016939;28;20109;-57
2023/04/30 06:50:32;;;;;;;11.60;4.22;;;8.90;99.90;;;;;;5016641;28;20052;-58
2023/04/30 06:52:57;;;;;;;14.00;4.28;;;9.00;99.90;;;;;;5017234;28;20077;-58
2023/04/30 06:55:23;;;;;;;11.10;4.18;;;9.00;99.90;;;;;;5017252;28;20056;-58
2023/04/30 06:57:49;;;;;;;11.82;3.45;;;9.10;99.90;;;;;;4998963;28;20065;-58
2023/04/30 07:00:15;;;;;;;10.45;2.90;;;9.20;99.90;;;;;;5017218;28;20042;-57
2023/04/30 07:02:41;;;;;;;8.35;2.60;;;9.10;99.90;;;;;;5016527;28;20119;-58
2023/04/30 07:05:08;;;;;;;12.85;3.33;;;9.10;99.90;;;;;;5017314;28;20077;-58
2023/04/30 07:07:33;;;;;;;10.73;2.97;;;9.20;99.90;;;;;;5016825;28;20077;-57
2023/04/30 07:09:59;;;;;;;13.60;3.50;;;9.30;99.90;;;;;;5016997;28;20049;-57
2023/04/30 07:12:25;;;;;;;14.10;3.47;;;9.30;99.90;;;;;;5016805;28;20268;-57
2023/04/30 07:14:50;;;;;;;13.90;3.83;;;9.30;99.90;;;;;;5016572;28;20065;-57
2023/04/30 07:17:16;;;;;;;11.07;3.38;;;9.40;99.90;;;;;;5017043;28;20049;-58
2023/04/30 07:19:42;;;;;;;10.48;2.83;;;9.40;99.90;;;;;;5016753;28;20049;-58
2023/04/30 07:22:08;;;;;;;10.05;3.38;;;9.50;99.90;;;;;;5016300;28;20061;-58
2023/04/30 07:24:34;;;;;;;10.00;2.83;;;9.50;99.90;;;;;;5016231;28;20045;-58
2023/04/30 07:27:02;;;;;;;10.70;3.60;;;9.70;99.90;;;;;;5016844;28;20768;-57
2023/04/30 07:29:28;;;;;;;7.13;2.38;;;9.70;99.90;;;;;;5016874;28;20084;-58
2023/04/30 07:31:55;;;;;;;12.48;2.75;;;9.80;99.90;;;;;;5016295;28;20042;-58
2023/04/30 07:34:21;;;;;;;11.13;2.63;;;9.90;99.90;;;;;;5017102;28;20060;-58
2023/04/30 07:36:49;;;;;;;10.02;2.88;;;10.10;99.90;;;;;;5015582;28;20038;-59
2023/04/30 07:39:15;;;;;;;15.60;2.95;;;10.00;99.90;;;;;;5016756;28;20057;-58
2023/04/30 07:41:42;;;;;;;9.43;2.83;;;10.10;99.90;;;;;;5015772;28;20046;-61
2023/04/30 07:44:07;;;;;;;11.43;2.97;;;10.10;99.90;;;;;;5016327;28;20502;-57
2023/04/30 07:46:35;;;;;;;8.18;2.40;;;10.30;99.90;;;;;;5015690;28;20046;-57
2023/04/30 07:49:00;;;;;;;9.70;2.80;;;10.40;99.90;;;;;;5015858;28;20050;-58
2023/04/30 07:51:26;;;;;;;10.23;2.50;;;10.30;99.90;;;;;;5016640;28;20041;-58
2023/04/30 07:53:52;;;;;;;12.88;3.75;;;10.20;99.90;;;;;;5015262;28;20529;-54
2023/04/30 07:56:18;;;;;;;9.18;2.92;;;10.30;99.90;;;;;;5015652;28;20054;-61
2023/04/30 07:58:44;;;;;;;11.07;2.92;;;10.50;99.90;;;;;;5015425;28;20062;-57
2023/04/30 08:01:09;;;;;;;13.80;3.22;;;10.60;99.90;;;;;;5015216;28;20080;-56
2023/04/30 08:03:35;;;;;;;9.05;2.72;;;10.60;99.90;;;;;;5015574;28;20045;-58
2023/04/30 08:06:01;;;;;;;11.25;2.83;;;10.60;99.90;;;;;;5014920;28;20046;-57
2023/04/30 08:08:27;;;;;;;9.98;2.90;;;10.60;99.90;;;;;;5015958;28;20034;-57
2023/04/30 08:10:53;;;;;;;11.45;3.10;;;10.50;99.90;;;;;;5014760;28;20177;-58
2023/04/30 08:13:19;;;;;;;10.90;2.85;;;10.80;99.90;;;;;;4998682;28;20061;-58
2023/04/30 08:15:45;;;;;;;8.80;2.53;;;10.90;99.90;;;;;;5014938;28;20058;-56
2023/04/30 08:18:11;;;;;;;8.13;3.03;;;10.90;99.90;;;;;;5015613;28;20080;-58
2023/04/30 08:20:36;;;;;;;12.43;2.60;;;10.90;99.90;;;;;;5015801;28;20054;-57
2023/04/30 08:23:03;;;;;;;8.70;2.50;;;10.80;99.90;;;;;;5014791;28;20409;-58
2023/04/30 08:25:30;;;;;;;10.15;2.85;;;11.00;99.90;;;;;;5015861;28;20046;-57
2023/04/30 08:27:56;;;;;;;11.27;2.70;;;11.00;99.90;;;;;;5014711;28;20049;-58
2023/04/30 08:30:22;;;;;;;8.20;2.88;;;11.00;99.90;;;;;;5015258;28;20050;-57
2023/04/30 08:32:48;;;;;;;14.25;2.72;;;11.00;99.90;;;;;;5014240;28;20302;-58
2023/04/30 08:35:15;;;;;;;12.38;2.40;;;11.10;99.90;;;;;;5014850;28;20034;-58
2023/04/30 08:37:41;;;;;;;13.13;2.80;;;11.20;99.90;;;;;;5015278;28;20052;-57
2023/04/30 08:40:08;;;;;;;11.20;2.67;;;11.30;99.90;;;;;;5015106;28;20585;-58
2023/04/30 08:42:36;;;;;;;7.65;2.83;;;11.10;99.90;;;;;;5014838;28;20081;-58
2023/04/30 08:45:03;;;;;;;9.63;2.70;;;11.30;99.90;;;;;;5015026;28;20046;-58
2023/04/30 08:47:30;;;;;;;10.35;2.60;;;11.40;99.90;;;;;;5014301;28;20073;-57
2023/04/30 08:49:55;;;;;;;9.60;2.80;;;11.30;99.90;;;;;;5013899;28;20049;-57
2023/04/30 08:52:21;;;;;;;9.07;3.00;;;11.50;99.90;;;;;;5015260;28;20046;-57
2023/04/30 08:55:00;;;;;;;9.93;2.75;;;11.20;99.90;;;;;;5096684;28;20398;-58
2023/04/30 08:57:26;;;;;;;8.40;2.53;;;11.30;99.90;;;;;;5094737;28;20403;-58
2023/04/30 08:59:53;;;;;;;10.18;2.42;;;11.20;99.90;;;;;;5095374;28;20098;-58
2023/04/30 09:02:19;;;;;;;8.50;2.20;;;11.50;99.90;;;;;;5096472;28;20055;-58
2023/04/30 09:04:45;;;;;;;9.70;2.60;;;11.60;99.90;;;;;;5095195;28;20036;-57
2023/04/30 09:07:13;;;;;;;8.35;2.90;;;11.50;99.90;;;;;;5096394;28;20447;-58
2023/04/30 09:09:39;;;;;;;10.15;2.63;;;11.70;99.90;;;;;;5095056;28;20391;-56
2023/04/30 09:12:13;;;;;;;9.43;2.95;;;11.70;99.90;;;;;;5094560;28;20040;-57
2023/04/30 09:14:39;;;;;;;8.57;2.55;;;11.70;99.90;;;;;;5096235;28;20052;-58
2023/04/30 09:17:05;;;;;;;11.77;3.20;;;12.00;99.90;;;;;;5076938;28;20040;-58
2023/04/30 09:19:31;;;;;;;9.93;2.50;;;11.80;99.90;;;;;;5096352;28;20133;-58
2023/04/30 09:21:57;;;;;;;9.27;2.63;;;11.90;99.90;;;;;;5094770;28;20491;-57
2023/04/30 09:24:23;;;;;;;10.43;2.90;;;11.80;99.90;;;;;;5095679;28;20092;-59
2023/04/30 09:26:50;;;;;;;10.35;2.83;;;12.20;99.90;;;;;;5094966;28;20281;-59
2023/04/30 09:29:16;;;;;;;7.63;2.45;;;12.20;99.90;;;;;;5095987;28;20287;-59
2023/04/30 09:31:45;;;;;;;7.65;2.20;;;12.30;99.90;;;;;;5095614;28;20056;-57
2023/04/30 09:34:12;;;;;;;10.65;2.20;;;12.30;99.90;;;;;;5094369;28;20048;-58
2023/04/30 09:36:53;;;;;;;8.90;2.60;;;12.40;99.90;;;;;;5095698;28;20071;-57
2023/04/30 09:39:20;;;;;;;8.80;2.67;;;12.40;99.90;;;;;;5094473;28;20040;-58
2023/04/30 09:41:45;;;;;;;10.38;3.30;;;12.30;99.90;;;;;;5096234;28;20037;-57
2023/04/30 09:44:27;;;;;;;15.15;3.72;;;12.60;99.90;;;;;;5093724;28;20046;-57
2023/04/30 09:46:54;;;;;;;11.15;3.45;;;12.40;99.90;;;;;;5093028;28;20039;-57
2023/04/30 09:49:20;;;;;;;9.30;2.80;;;12.60;99.90;;;;;;5095351;28;20108;-57
2023/04/30 09:51:59;;;;;;;11.32;3.15;;;12.70;99.90;;;;;;5094530;28;20077;-57
2023/04/30 09:54:29;;;;;;;10.05;3.00;;;12.80;99.90;;;;;;5094414;28;20115;-58
2023/04/30 09:56:57;;;;;;;13.35;3.60;;;12.70;99.90;;;;;;5093220;28;20644;-57
2023/04/30 09:59:30;;;;;;;12.40;3.30;;;12.80;99.90;;;;;;5093779;28;20111;-57
2023/04/30 10:02:00;;;;;;;9.63;3.08;;;12.90;99.90;;;;;;5094459;28;20095;-58
2023/04/30 10:04:30;;;;;;;8.93;3.13;;;12.70;99.90;;;;;;5088270;28;20048;-57
2023/04/30 10:07:00;;;;;;;13.43;3.00;;;12.80;99.90;;;;;;5081165;28;20413;-58
2023/04/30 10:09:36;;;;;;;9.48;2.83;;;12.90;99.90;;;;;;5078559;28;20464;-57
2023/04/30 10:12:06;;;;;;;10.98;3.05;;;13.00;99.90;;;;;;5080234;28;20486;-57
2023/04/30 10:14:33;;;;;;;9.40;3.55;;;12.90;99.90;;;;;;5079997;28;20190;-57
2023/04/30 10:17:10;;;;;;;10.35;4.00;;;12.90;99.90;;;;;;5078312;28;20076;-57
2023/04/30 10:19:40;;;;;;;10.80;3.15;;;12.90;99.90;;;;;;5080579;28;20051;-56
2023/04/30 10:22:07;;;;;;;10.73;4.05;;;12.90;99.90;;;;;;5078777;28;20250;-58
2023/04/30 10:24:33;;;;;;;8.25;2.97;;;12.80;99.90;;;;;;5080079;28;20045;-56
2023/04/30 10:26:59;;;;;;;8.38;2.92;;;12.80;99.90;;;;;;5077818;28;20138;-57
2023/04/30 10:29:25;;;;;;;6.82;2.63;;;13.00;99.90;;;;;;5079806;28;20048;-57
2023/04/30 10:31:53;;;;;;;7.32;2.45;;;13.00;99.90;;;;;;5080451;28;20055;-57
2023/04/30 10:34:40;;;;;;;9.18;3.05;;;13.10;99.90;;;;;;5077882;28;20343;-57
2023/04/30 10:37:19;;;;;;;8.15;2.58;;;13.10;99.90;;;;;;5078786;28;20052;-57
2023/04/30 10:39:45;;;;;;;9.23;2.92;;;13.20;99.90;;;;;;5078324;28;20538;-57
2023/04/30 10:42:12;;;;;;;9.70;2.97;;;13.30;99.90;;;;;;5079514;28;20515;-57
2023/04/30 10:44:38;;;;;;;10.43;3.00;;;13.20;99.90;;;;;;5078127;28;20243;-57
2023/04/30 10:47:05;;;;;;;9.43;3.25;;;13.30;99.90;;;;;;5077782;28;20033;-57
2023/04/30 10:49:32;;;;;;;8.85;3.15;;;13.20;99.90;;;;;;5079728;28;20096;-57
2023/04/30 10:52:02;;;;;;;9.73;3.10;;;13.10;99.90;;;;;;5076657;28;20372;-57
2023/04/30 10:54:31;;;;;;;10.25;3.05;;;13.30;99.90;;;;;;5077680;28;20239;-57
2023/04/30 10:57:16;;;;;;;10.77;2.72;;;13.40;99.90;;;;;;5077940;28;20047;-58
2023/04/30 10:59:45;;;;;;;8.73;3.10;;;13.60;99.90;;;;;;5077137;28;20489;-58
2023/04/30 11:02:14;;;;;;;10.60;2.80;;;13.60;99.90;;;;;;5076801;28;20051;-57
2023/04/30 11:05:12;;;;;;;8.48;3.05;;;13.70;99.90;;;;;;5077411;28;20029;-58
2023/04/30 11:07:55;;;;;;;6.85;2.80;;;13.90;99.90;;;;;;5077321;28;20488;-58
2023/04/30 11:10:23;;;;;;;6.50;2.58;;;13.80;99.90;;;;;;5077509;28;20196;-58
2023/04/30 11:12:51;;;;;;;7.38;2.75;;;13.90;99.90;;;;;;5077222;28;20150;-59
2023/04/30 11:15:25;;;;;;;10.38;3.00;;;13.90;99.90;;;;;;5077919;28;20053;-58
2023/04/30 11:17:57;;;;;;;11.20;2.60;;;13.90;99.90;;;;;;5073620;28;20062;-59
2023/04/30 11:20:24;;;;;;;10.55;3.95;;;14.10;99.90;;;;;;5078982;28;20051;-58
2023/04/30 11:23:13;;;;;;;7.10;2.50;;;14.10;99.90;;;;;;5078045;28;20044;-58
2023/04/30 11:25:43;;;;;;;9.40;3.05;;;14.10;99.90;;;;;;5074735;28;20064;-58
2023/04/30 11:28:22;;;;;;;9.73;2.65;;;14.10;99.90;;;;;;5078900;28;20411;-58
2023/04/30 11:30:52;;;;;;;6.55;2.83;;;14.20;99.90;;;;;;5076397;28;20354;-58
2023/04/30 11:33:19;;;;;;;11.63;3.05;;;14.10;99.90;;;;;;5078835;28;20476;-59
2023/04/30 11:35:44;;;;;;;10.07;3.30;;;14.00;99.90;;;;;;5077670;28;20091;-58
2023/04/30 11:38:11;;;;;;;7.53;2.70;;;14.10;99.90;;;;;;5075433;28;20036;-58
2023/04/30 11:40:37;;;;;;;7.28;2.30;;;14.20;99.90;;;;;;5078593;28;20040;-57
2023/04/30 11:43:03;;;;;;;6.72;2.70;;;14.10;99.90;;;;;;5076457;28;20038;-59
2023/04/30 11:45:29;;;;;;;7.93;2.70;;;14.00;99.90;;;;;;5078379;28;20076;-58
2023/04/30 11:47:56;;;;;;;7.18;2.65;;;14.20;99.90;;;;;;5077136;28;20052;-58
2023/04/30 11:50:30;;;;;;;7.15;2.30;;;14.30;99.90;;;;;;5078272;28;20111;-57
2023/04/30 11:52:57;;;;;;;8.02;2.33;;;14.50;99.90;;;;;;5074200;28;20056;-57
2023/04/30 11:55:25;;;;;;;11.27;2.55;;;14.60;99.90;;;;;;5076840;28;20052;-57
2023/04/30 11:57:56;;;;;;;7.82;2.60;;;14.80;99.90;;;;;;5075823;28;20040;-57
2023/04/30 12:00:27;;;;;;;7.25;2.67;;;14.80;99.90;;;;;;5075022;28;20047;-58
2023/04/30 12:02:53;;;;;;;7.35;2.75;;;14.90;99.90;;;;;;5075292;28;20041;-57
2023/04/30 12:05:23;;;;;;;7.07;2.55;;;14.90;99.90;;;;;;5075779;28;20064;-57
2023/04/30 12:07:59;;;;;;;10.10;3.03;;;15.10;99.90;;;;;;5077835;28;20044;-57
2023/04/30 12:10:26;;;;;;;8.43;3.72;;;15.00;99.90;;;;;;5059007;28;20045;-57
2023/04/30 12:12:53;;;;;;;9.20;2.90;;;15.10;99.90;;;;;;5059230;28;20041;-57
2023/04/30 12:15:25;;;;;;;11.68;3.35;;;15.10;99.90;;;;;;5060282;28;20052;-57
2023/04/30 12:17:51;;;;;;;9.57;3.90;;;14.90;99.90;;;;;;5059021;28;20052;-57
2023/04/30 12:20:18;;;;;;;9.90;2.88;;;15.00;99.90;;;;;;5061889;28;20041;-57
2023/04/30 12:22:44;;;;;;;7.95;3.25;;;15.00;99.90;;;;;;5061110;28;20052;-57
2023/04/30 12:25:16;;;;;;;8.70;2.95;;;15.00;99.90;;;;;;5060968;28;20124;-57
2023/04/30 12:27:46;;;;;;;6.63;2.25;;;15.10;99.90;;;;;;5061947;28;20124;-58
2023/04/30 12:30:12;;;;;;;7.90;2.50;;;15.20;99.90;;;;;;5059858;28;20666;-57
2023/04/30 12:32:43;;;;;;;9.82;3.28;;;15.10;99.90;;;;;;5061938;28;20049;-57
2023/04/30 12:35:17;;;;;;;9.82;3.42;;;15.20;99.90;;;;;;5060057;28;20053;-58
2023/04/30 12:37:49;;;;;;;7.38;3.00;;;15.20;99.90;;;;;;5077308;28;20077;-57
2023/04/30 12:40:15;;;;;;;7.25;2.85;;;15.20;99.90;;;;;;5060947;28;20055;-57
2023/04/30 12:42:45;;;;;;;9.32;3.17;;;15.40;99.90;;;;;;5060620;28;20127;-57
2023/04/30 12:45:12;;;;;;;7.13;2.55;;;15.40;99.90;;;;;;5060763;28;20049;-57
2023/04/30 12:47:42;;;;;;;8.10;2.83;;;15.40;99.90;;;;;;5071089;28;20048;-57
2023/04/30 12:50:11;;;;;;;12.48;3.08;;;15.40;99.90;;;;;;5081566;28;20079;-57
2023/04/30 12:52:38;;;;;;;8.15;2.78;;;15.60;99.90;;;;;;5079807;28;20053;-57